createdAt,value
2023-05-11T00:00:10.225Z,4.47
2023-05-11T00:02:38.379Z,4.78
2023-05-11T00:05:06.839Z,5.00
2023-05-11T00:07:34.314Z,5.25
2023-05-11T00:10:01.824Z,4.88
2023-05-11T00:12:33.437Z,5.25
2023-05-11T00:15:01.185Z,5.35
2023-05-11T00:17:28.854Z,4.97
2023-05-11T00:19:56.567Z,5.30
2023-05-11T00:22:24.002Z,5.43
2023-05-11T00:24:51.542Z,5.50
2023-05-11T00:27:19.067Z,4.93
2023-05-11T00:29:47.879Z,5.05
2023-05-11T00:34:43.259Z,4.60
2023-05-11T00:37:10.837Z,4.88
2023-05-11T00:39:40.749Z,5.03
2023-05-11T00:42:08.586Z,6.05
2023-05-11T00:44:36.106Z,5.28
2023-05-11T00:47:04.154Z,5.63
2023-05-11T00:49:31.786Z,5.50
2023-05-11T00:52:03.290Z,5.80
2023-05-11T00:54:31.889Z,5.10
2023-05-11T00:57:00.254Z,4.97
2023-05-11T00:59:27.982Z,4.03
2023-05-11T01:01:56.033Z,4.10
2023-05-11T01:07:23.423Z,5.07
2023-05-11T01:10:20.974Z,5.40
2023-05-11T01:13:23.922Z,4.75
2023-05-11T01:15:56.791Z,4.35
2023-05-11T01:18:40.512Z,4.43
2023-05-11T01:21:17.132Z,5.30
2023-05-11T01:24:21.496Z,4.80
2023-05-11T01:27:18.491Z,4.45
2023-05-11T01:30:35.248Z,4.80
2023-05-11T01:33:11.124Z,5.95
2023-05-11T01:35:49.358Z,4.90
2023-05-11T01:38:21.898Z,4.60
2023-05-11T01:40:57.246Z,5.10
2023-05-11T01:43:28.213Z,4.97
2023-05-11T01:46:01.895Z,5.00
2023-05-11T01:48:35.724Z,4.97
2023-05-11T01:51:04.010Z,4.32
2023-05-11T01:56:04.138Z,5.28
2023-05-11T01:58:33.199Z,5.88
2023-05-11T02:01:03.435Z,5.32
2023-05-11T02:03:33.280Z,4.90
2023-05-11T02:06:03.282Z,5.18
2023-05-11T02:08:33.089Z,6.05
2023-05-11T02:11:03.202Z,4.97
2023-05-11T02:13:31.611Z,6.28
2023-05-11T02:16:00.618Z,5.47
2023-05-11T02:18:30.437Z,5.40
2023-05-11T02:21:00.467Z,6.18
2023-05-11T02:23:31.485Z,5.68
2023-05-11T02:26:00.211Z,5.57
2023-05-11T02:28:27.921Z,5.82
2023-05-11T02:31:00.965Z,5.55
2023-05-11T02:33:34.795Z,4.93
2023-05-11T02:36:03.821Z,5.28
2023-05-11T02:38:35.926Z,5.30
2023-05-11T02:41:12.066Z,4.80
2023-05-11T02:43:47.884Z,6.28
2023-05-11T02:46:20.761Z,7.20
2023-05-11T02:48:55.707Z,7.05
2023-05-11T02:51:39.813Z,8.05
2023-05-11T02:54:11.040Z,7.00
2023-05-11T02:56:42.999Z,6.47
2023-05-11T02:59:11.329Z,6.80
2023-05-11T03:01:39.864Z,6.28
2023-05-11T03:04:07.702Z,6.72
2023-05-11T03:06:36.757Z,6.90
2023-05-11T03:09:09.833Z,7.80
2023-05-11T03:11:42.873Z,6.57
2023-05-11T03:14:11.202Z,7.90
2023-05-11T03:16:40.189Z,7.22
2023-05-11T03:19:09.595Z,6.43
2023-05-11T03:21:39.902Z,7.63
2023-05-11T03:24:08.545Z,7.25
2023-05-11T03:26:37.191Z,6.47
2023-05-11T03:29:07.950Z,7.90
2023-05-11T03:31:35.816Z,6.78
2023-05-11T03:34:03.578Z,6.85
2023-05-11T03:36:36.791Z,7.40
2023-05-11T03:39:05.240Z,6.25
2023-05-11T03:41:35.574Z,7.85
2023-05-11T03:44:07.381Z,7.18
2023-05-11T03:46:40.280Z,6.05
2023-05-11T03:49:12.769Z,5.60
2023-05-11T03:51:41.608Z,5.63
2023-05-11T03:54:09.646Z,5.60
2023-05-11T03:59:05.952Z,5.15
2023-05-11T04:01:34.242Z,5.10
2023-05-11T04:04:01.785Z,4.63
2023-05-11T04:06:29.581Z,5.45
2023-05-11T04:09:08.283Z,4.30
2023-05-11T04:14:06.072Z,4.72
2023-05-11T04:16:33.727Z,4.40
2023-05-11T04:19:02.683Z,5.03
2023-05-11T04:21:30.776Z,4.40
2023-05-11T04:23:58.456Z,4.30
2023-05-11T04:26:26.532Z,3.85
2023-05-11T04:28:54.189Z,4.20
2023-05-11T04:31:21.849Z,4.82
2023-05-11T04:33:49.484Z,3.58
2023-05-11T04:36:17.304Z,4.10
2023-05-11T04:38:45.735Z,3.90
2023-05-11T04:41:14.968Z,4.63
2023-05-11T04:43:43.370Z,4.18
2023-05-11T04:46:11.514Z,3.70
2023-05-11T04:48:39.576Z,3.95
2023-05-11T04:51:07.165Z,4.18
2023-05-11T04:53:39.954Z,4.28
2023-05-11T04:56:07.978Z,4.72
2023-05-11T04:58:35.465Z,3.47
2023-05-11T05:03:31.198Z,2.92
2023-05-11T05:05:58.674Z,3.25
2023-05-11T05:08:26.192Z,2.70
2023-05-11T05:10:54.124Z,3.00
2023-05-11T05:13:21.735Z,2.05
2023-05-11T05:15:49.352Z,1.10
2023-05-11T05:18:16.831Z,9.50
2023-05-11T05:20:46.046Z,6.50
2023-05-11T05:23:13.501Z,3.35
2023-05-11T05:25:40.975Z,3.38
2023-05-11T05:28:08.455Z,3.33
2023-05-11T05:30:37.328Z,3.45
2023-05-11T05:33:05.697Z,3.70
2023-05-11T05:35:35.099Z,3.70
2023-05-11T05:38:02.501Z,3.90
2023-05-11T05:40:30.046Z,6.63
2023-05-11T05:42:57.494Z,4.03
2023-05-11T05:47:53.362Z,4.75
2023-05-11T05:50:22.529Z,3.95
2023-05-11T05:52:49.984Z,4.22
2023-05-11T05:55:17.839Z,6.80
2023-05-11T05:57:47.774Z,10.20
2023-05-11T06:00:16.693Z,4.80
2023-05-11T06:02:52.793Z,8.95
2023-05-11T06:05:25.150Z,5.38
2023-05-11T06:08:08.366Z,3.58
2023-05-11T06:10:37.847Z,9.77
2023-05-11T06:15:33.713Z,4.35
2023-05-11T06:18:08.550Z,3.10
2023-05-11T06:20:36.458Z,3.22
2023-05-11T06:23:06.202Z,3.83
2023-05-11T06:25:38.717Z,3.30
2023-05-11T06:28:07.000Z,3.05
2023-05-11T06:30:36.195Z,3.15
2023-05-11T06:33:06.685Z,3.47
2023-05-11T06:35:37.789Z,3.05
2023-05-11T06:38:08.531Z,3.38
2023-05-11T06:40:37.302Z,3.17
2023-05-11T06:43:04.758Z,3.30
2023-05-11T06:45:45.880Z,3.30
2023-05-11T06:48:14.061Z,3.83
2023-05-11T06:50:41.558Z,3.72
2023-05-11T06:53:14.236Z,3.90
2023-05-11T06:55:41.844Z,4.13
2023-05-11T06:58:09.382Z,4.25
2023-05-11T07:00:36.828Z,3.10
2023-05-11T07:03:05.151Z,2.83
2023-05-11T07:05:33.223Z,2.70
2023-05-11T07:08:00.638Z,2.60
2023-05-11T07:10:28.174Z,2.95
2023-05-11T07:12:55.660Z,3.95
2023-05-11T07:15:23.138Z,3.25
2023-05-11T07:17:50.723Z,2.65
2023-05-11T07:20:18.527Z,2.90
2023-05-11T07:22:46.188Z,2.90
2023-05-11T07:25:13.659Z,2.58
2023-05-11T07:27:41.167Z,2.63
2023-05-11T07:30:09.256Z,3.15
2023-05-11T07:35:04.589Z,2.72
2023-05-11T07:37:33.058Z,2.70
2023-05-11T07:40:01.036Z,2.45
2023-05-11T07:42:28.697Z,2.00
2023-05-11T07:44:56.306Z,2.35
2023-05-11T07:47:25.069Z,2.30
2023-05-11T07:49:52.687Z,2.42
2023-05-11T07:52:20.317Z,2.60
2023-05-11T07:54:47.793Z,1.70
2023-05-11T07:57:15.335Z,1.95
2023-05-11T07:59:42.827Z,1.85
2023-05-11T08:02:12.882Z,1.63
2023-05-11T08:04:40.947Z,2.00
2023-05-11T08:07:09.180Z,2.38
2023-05-11T08:09:37.228Z,2.20
2023-05-11T08:12:04.798Z,1.50
2023-05-11T08:14:32.989Z,1.70
2023-05-11T08:17:00.528Z,1.45
2023-05-11T08:19:27.929Z,1.60
2023-05-11T08:21:55.408Z,2.03
2023-05-11T08:24:22.919Z,1.50
2023-05-11T08:26:50.305Z,1.50
2023-05-11T08:29:17.783Z,1.80
2023-05-11T08:31:45.269Z,1.50
2023-05-11T08:34:19.262Z,2.10
2023-05-11T08:36:47.862Z,2.22
2023-05-11T08:41:53.318Z,1.90
2023-05-11T08:44:22.070Z,1.50
2023-05-11T08:47:03.642Z,1.50
2023-05-11T08:52:07.948Z,1.60
2023-05-11T08:54:35.617Z,1.50
2023-05-11T08:57:04.166Z,1.45
2023-05-11T08:59:34.184Z,1.80
2023-05-11T09:02:02.571Z,1.75
2023-05-11T09:04:30.778Z,1.77
2023-05-11T09:06:59.294Z,1.90
2023-05-11T09:09:27.005Z,1.85
2023-05-11T09:11:55.442Z,1.98
2023-05-11T09:14:27.144Z,2.30
2023-05-11T09:16:55.059Z,4.05
2023-05-11T09:19:22.712Z,2.60
2023-05-11T09:21:52.875Z,3.15
2023-05-11T09:24:21.478Z,1.58
2023-05-11T09:26:49.381Z,1.80
2023-05-11T09:29:21.446Z,1.63
2023-05-11T09:31:49.052Z,1.55
2023-05-11T09:34:22.805Z,2.10
2023-05-11T09:36:53.264Z,1.77
2023-05-11T09:39:53.257Z,1.95
2023-05-11T09:42:22.977Z,2.15
2023-05-11T09:44:50.517Z,1.65
2023-05-11T09:47:20.453Z,2.50
2023-05-11T09:49:48.533Z,1.98
2023-05-11T09:54:51.435Z,1.80
2023-05-11T09:57:31.529Z,1.42
2023-05-11T10:00:00.661Z,1.30
2023-05-11T10:02:31.404Z,1.50
2023-05-11T10:05:13.448Z,1.63
2023-05-11T10:07:41.581Z,1.60
2023-05-11T10:10:11.970Z,1.42
2023-05-11T10:12:40.616Z,1.50
2023-05-11T10:15:10.860Z,1.38
2023-05-11T10:17:38.504Z,2.05
2023-05-11T10:20:07.094Z,1.42
2023-05-11T10:22:37.864Z,1.30
2023-05-11T10:25:06.673Z,1.40
2023-05-11T10:27:34.735Z,1.58
2023-05-11T10:32:40.357Z,1.65
2023-05-11T10:35:09.507Z,1.90
2023-05-11T10:37:37.285Z,1.65
2023-05-11T10:40:06.084Z,1.45
2023-05-11T10:43:06.426Z,2.30
2023-05-11T10:45:49.062Z,2.10
2023-05-11T10:49:01.347Z,1.52
2023-05-11T10:51:41.020Z,2.67
2023-05-11T10:54:35.605Z,2.03
2023-05-11T10:57:35.301Z,1.80
2023-05-11T11:00:14.534Z,1.25
2023-05-11T11:02:42.693Z,0.70
2023-05-11T11:05:17.361Z,1.00
2023-05-11T11:08:01.235Z,0.80
2023-05-11T11:10:37.515Z,0.77
2023-05-11T11:13:09.019Z,0.50
2023-05-11T11:15:55.275Z,0.80
2023-05-11T11:18:35.195Z,0.88
2023-05-11T11:21:03.275Z,0.60
2023-05-11T11:23:50.194Z,0.90
2023-05-11T11:26:40.413Z,0.52
2023-05-11T11:29:09.350Z,1.00
2023-05-11T11:31:37.929Z,0.63
2023-05-11T11:34:27.624Z,0.60
2023-05-11T11:36:55.834Z,1.00
2023-05-11T11:39:28.100Z,1.40
2023-05-11T11:42:08.411Z,0.60
2023-05-11T11:44:40.207Z,0.70
2023-05-11T11:47:21.122Z,0.52
2023-05-11T11:49:55.068Z,0.80
2023-05-11T11:52:31.427Z,0.95
2023-05-11T11:55:00.947Z,0.98
2023-05-11T11:57:36.626Z,0.60
2023-05-11T12:00:10.852Z,0.90
2023-05-11T12:02:44.723Z,0.88
2023-05-11T12:05:23.664Z,0.93
2023-05-11T12:07:53.611Z,1.48
2023-05-11T12:10:23.205Z,2.08
2023-05-11T12:12:55.217Z,1.42
2023-05-11T12:15:32.608Z,1.20
2023-05-11T12:18:02.975Z,1.00
2023-05-11T12:20:30.523Z,1.10
2023-05-11T12:22:58.042Z,1.00
2023-05-11T12:25:25.535Z,1.00
2023-05-11T12:27:58.755Z,0.93
2023-05-11T12:30:30.610Z,0.68
2023-05-11T12:33:04.437Z,0.80
2023-05-11T12:35:34.518Z,1.10
2023-05-11T12:38:03.006Z,1.10
2023-05-11T12:40:32.063Z,2.22
2023-05-11T12:43:01.034Z,1.27
2023-05-11T12:45:30.079Z,1.60
2023-05-11T12:47:58.754Z,1.70
2023-05-11T12:50:26.538Z,2.13
2023-05-11T12:52:54.008Z,1.20
2023-05-11T12:55:30.300Z,1.25
2023-05-11T12:58:16.211Z,1.17
2023-05-11T13:00:58.317Z,4.68
2023-05-11T13:03:32.694Z,2.83
2023-05-11T13:06:12.291Z,1.60
2023-05-11T13:08:45.611Z,1.92
2023-05-11T13:11:25.746Z,1.10
2023-05-11T13:13:56.291Z,2.55
2023-05-11T13:16:29.144Z,1.88
2023-05-11T13:19:06.042Z,2.90
2023-05-11T13:21:33.830Z,1.90
2023-05-11T13:24:04.050Z,1.48
2023-05-11T13:26:33.079Z,1.05
2023-05-11T13:31:52.787Z,1.25
2023-05-11T13:34:21.084Z,1.58
2023-05-11T13:36:49.184Z,1.08
2023-05-11T13:39:16.898Z,1.30
2023-05-11T13:41:44.425Z,1.17
2023-05-11T13:44:11.889Z,0.95
2023-05-11T13:46:39.435Z,1.23
2023-05-11T13:49:06.943Z,1.10
2023-05-11T13:51:34.828Z,0.80
2023-05-11T13:54:02.679Z,1.10
2023-05-11T13:56:30.330Z,1.20
2023-05-11T13:58:59.980Z,1.23
2023-05-11T14:01:27.990Z,1.25
2023-05-11T14:03:56.488Z,1.20
2023-05-11T14:06:25.750Z,1.10
2023-05-11T14:08:53.955Z,1.20
2023-05-11T14:11:23.149Z,1.10
2023-05-11T14:13:51.664Z,1.05
2023-05-11T14:16:20.489Z,1.40
2023-05-11T14:18:50.433Z,1.48
2023-05-11T14:21:18.107Z,2.13
2023-05-11T14:24:01.297Z,4.90
2023-05-11T14:26:33.365Z,2.08
2023-05-11T14:29:00.930Z,3.15
2023-05-11T14:31:28.948Z,1.17
2023-05-11T14:33:56.838Z,2.83
2023-05-11T14:36:24.316Z,1.83
2023-05-11T14:38:52.139Z,1.83
2023-05-11T14:41:19.936Z,1.10
2023-05-11T14:43:49.474Z,1.30
2023-05-11T14:46:17.354Z,1.13
2023-05-11T14:48:44.799Z,1.13
2023-05-11T14:51:12.222Z,1.40
2023-05-11T14:53:39.807Z,1.40
2023-05-11T14:56:07.651Z,1.73
2023-05-11T14:58:36.090Z,1.63
2023-05-11T15:01:05.037Z,1.75
2023-05-11T15:03:32.759Z,1.48
2023-05-11T15:06:00.321Z,1.30
2023-05-11T15:08:30.576Z,1.38
2023-05-11T15:10:58.985Z,1.58
2023-05-11T15:13:26.955Z,1.20
2023-05-11T15:18:22.307Z,1.23
2023-05-11T15:20:49.876Z,1.25
2023-05-11T15:23:17.900Z,1.77
2023-05-11T15:28:13.054Z,4.93
2023-05-11T15:30:42.372Z,2.75
2023-05-11T15:33:10.664Z,2.70
2023-05-11T15:38:06.375Z,1.75
2023-05-11T15:43:01.087Z,1.60
2023-05-11T15:45:29.763Z,1.73
2023-05-11T15:47:58.288Z,1.55
2023-05-11T15:50:25.932Z,1.35
2023-05-11T15:52:53.315Z,1.60
2023-05-11T15:55:20.762Z,1.70
2023-05-11T15:57:48.193Z,1.55
2023-05-11T16:00:16.591Z,1.50
2023-05-11T16:02:45.980Z,1.90
2023-05-11T16:05:13.646Z,1.60
2023-05-11T16:07:41.284Z,1.80
2023-05-11T16:10:09.305Z,1.52
2023-05-11T16:12:36.712Z,1.23
2023-05-11T16:15:05.647Z,1.35
2023-05-11T16:17:34.434Z,1.95
2023-05-11T16:20:03.597Z,1.90
2023-05-11T16:22:32.494Z,17.40
2023-05-11T16:25:00.006Z,3.05
2023-05-11T16:27:27.663Z,1.83
2023-05-11T16:29:55.161Z,1.73
2023-05-11T16:32:22.820Z,1.90
2023-05-11T16:34:50.370Z,2.70
2023-05-11T16:37:18.981Z,2.90
2023-05-11T16:39:46.499Z,1.95
2023-05-11T16:42:13.998Z,1.50
2023-05-11T16:44:41.647Z,2.33
2023-05-11T16:47:09.387Z,2.53
2023-05-11T16:49:36.839Z,2.45
2023-05-11T16:52:04.809Z,10.95
2023-05-11T16:54:32.334Z,17.55
2023-05-11T16:56:59.777Z,5.80
2023-05-11T16:59:27.240Z,4.03
2023-05-11T17:01:54.784Z,3.20
2023-05-11T17:04:22.307Z,2.40
2023-05-11T17:06:49.909Z,3.40
2023-05-11T17:09:17.475Z,2.95
2023-05-11T17:11:45.124Z,3.05
2023-05-11T17:14:13.467Z,3.45
2023-05-11T17:16:41.253Z,3.05
2023-05-11T17:19:09.723Z,3.03
2023-05-11T17:21:38.200Z,3.20
2023-05-11T17:24:05.959Z,3.53
2023-05-11T17:26:46.436Z,3.38
2023-05-11T17:29:17.350Z,3.53
2023-05-11T17:31:48.913Z,4.15
2023-05-11T17:34:18.439Z,4.10
2023-05-11T17:36:46.085Z,3.80
2023-05-11T17:39:13.939Z,3.50
2023-05-11T17:41:41.429Z,3.53
2023-05-11T17:44:09.401Z,3.22
2023-05-11T17:46:36.985Z,2.75
2023-05-11T17:49:05.471Z,2.85
2023-05-11T17:51:35.405Z,2.88
2023-05-11T17:54:03.119Z,2.67
2023-05-11T17:56:31.569Z,2.30
2023-05-11T17:58:59.676Z,2.80
2023-05-11T18:01:27.823Z,3.00
2023-05-11T18:06:23.035Z,3.03
2023-05-11T18:08:50.862Z,3.10
2023-05-11T18:11:18.420Z,2.67
2023-05-11T18:13:47.420Z,2.55
2023-05-11T18:16:15.002Z,3.22
2023-05-11T18:21:11.417Z,3.70
2023-05-11T18:23:39.215Z,3.50
2023-05-11T18:26:07.870Z,3.10
2023-05-11T18:28:35.380Z,2.92
2023-05-11T18:31:03.088Z,3.30
2023-05-11T18:33:30.962Z,4.10
2023-05-11T18:35:58.539Z,4.38
2023-05-11T18:38:26.051Z,3.92
2023-05-11T18:40:54.041Z,3.63
2023-05-11T18:43:21.562Z,3.58
2023-05-11T18:45:50.455Z,3.80
2023-05-11T18:48:17.879Z,4.00
2023-05-11T18:50:45.444Z,4.25
2023-05-11T18:53:12.977Z,3.00
2023-05-11T18:55:52.002Z,3.33
2023-05-11T18:58:21.314Z,4.35
2023-05-11T19:00:50.391Z,3.95
2023-05-11T19:03:20.822Z,4.35
2023-05-11T19:05:49.696Z,4.28
2023-05-11T19:08:18.788Z,4.93
2023-05-11T19:10:48.375Z,4.93
2023-05-11T19:13:15.901Z,5.20
2023-05-11T19:15:44.230Z,6.40
2023-05-11T19:20:39.524Z,5.00
2023-05-11T19:23:07.234Z,5.20
2023-05-11T19:25:34.749Z,4.90
2023-05-11T19:28:02.459Z,4.65
2023-05-11T19:30:30.157Z,4.53
2023-05-11T19:32:57.688Z,4.68
2023-05-11T19:35:28.331Z,4.30
2023-05-11T19:37:55.902Z,4.70
2023-05-11T19:42:55.691Z,4.20
2023-05-11T19:45:23.317Z,4.88
2023-05-11T19:47:51.151Z,4.13
2023-05-11T19:50:20.437Z,3.83
2023-05-11T19:52:49.412Z,3.95
2023-05-11T19:55:17.002Z,4.05
2023-05-11T19:57:44.548Z,4.22
2023-05-11T20:00:12.613Z,3.60
2023-05-11T20:02:40.510Z,4.93
2023-05-11T20:05:08.401Z,4.25
2023-05-11T20:07:36.003Z,3.60
2023-05-11T20:10:04.703Z,4.50
2023-05-11T20:12:32.504Z,4.13
2023-05-11T20:15:00.226Z,3.80
2023-05-11T20:17:27.820Z,4.22
2023-05-11T20:19:55.492Z,4.00
2023-05-11T20:22:23.001Z,3.60
2023-05-11T20:24:50.616Z,3.45
2023-05-11T20:27:18.210Z,3.88
2023-05-11T20:29:45.894Z,3.47
2023-05-11T20:32:13.428Z,3.38
2023-05-11T20:34:41.394Z,3.80
2023-05-11T20:37:09.652Z,3.60
2023-05-11T20:42:06.568Z,3.30
2023-05-11T20:44:34.213Z,3.00
2023-05-11T20:47:01.873Z,3.10
2023-05-11T20:49:38.360Z,2.78
2023-05-11T20:52:08.819Z,2.97
2023-05-11T20:54:36.940Z,3.63
2023-05-11T20:57:04.977Z,3.33
2023-05-11T21:02:03.356Z,4.10
2023-05-11T21:04:31.682Z,3.72
2023-05-11T21:09:26.516Z,3.08
2023-05-11T21:11:53.991Z,3.30
2023-05-11T21:14:21.645Z,3.17
2023-05-11T21:16:49.191Z,3.53
2023-05-11T21:19:16.894Z,3.55
2023-05-11T21:21:44.809Z,3.60
2023-05-11T21:24:14.160Z,3.28
2023-05-11T21:26:42.499Z,2.97
2023-05-11T21:29:12.394Z,3.40
2023-05-11T21:31:39.913Z,3.38
2023-05-11T21:34:07.432Z,3.08
2023-05-11T21:36:34.947Z,3.25
2023-05-11T21:39:02.596Z,2.92
2023-05-11T21:41:30.060Z,3.78
2023-05-11T21:43:57.694Z,3.55
2023-05-11T21:46:25.314Z,3.78
2023-05-11T21:48:52.809Z,3.35
2023-05-11T21:51:20.381Z,3.58
2023-05-11T21:53:47.820Z,3.20
2023-05-11T21:56:15.285Z,3.53
2023-05-11T21:58:42.798Z,3.50
2023-05-11T22:01:10.272Z,4.20
2023-05-11T22:03:37.863Z,3.42
2023-05-11T22:06:06.365Z,3.55
2023-05-11T22:08:33.912Z,3.67
2023-05-11T22:11:01.762Z,3.47
2023-05-11T22:13:29.335Z,4.03
2023-05-11T22:15:56.864Z,3.90
2023-05-11T22:18:25.427Z,3.67
2023-05-11T22:20:52.972Z,4.15
2023-05-11T22:23:21.300Z,3.45
2023-05-11T22:25:48.740Z,4.22
2023-05-11T22:28:16.239Z,3.57
2023-05-11T22:30:43.834Z,3.45
2023-05-11T22:33:11.458Z,3.35
2023-05-11T22:35:40.076Z,3.10
2023-05-11T22:38:07.600Z,3.60
2023-05-11T22:40:35.363Z,3.10
2023-05-11T22:43:03.353Z,3.45
2023-05-11T22:45:30.902Z,2.73
2023-05-11T22:47:58.441Z,3.47
2023-05-11T22:50:27.153Z,3.40
2023-05-11T22:52:55.555Z,3.22
2023-05-11T22:55:26.167Z,3.25
2023-05-11T22:57:53.730Z,3.30
2023-05-11T23:00:21.786Z,3.42
2023-05-11T23:05:17.096Z,3.20
2023-05-11T23:07:44.904Z,2.50
2023-05-11T23:10:12.733Z,3.08
2023-05-11T23:12:40.378Z,2.75
2023-05-11T23:15:09.859Z,2.92
2023-05-11T23:17:40.578Z,2.65
2023-05-11T23:20:09.043Z,3.30
2023-05-11T23:25:04.373Z,3.00
2023-05-11T23:27:33.778Z,3.10
2023-05-11T23:30:01.366Z,3.42
2023-05-11T23:32:35.526Z,2.90
2023-05-11T23:35:03.181Z,2.95
2023-05-11T23:37:32.203Z,3.03
2023-05-11T23:39:59.686Z,2.78
2023-05-11T23:42:27.785Z,2.90
2023-05-11T23:44:55.358Z,3.05
2023-05-11T23:47:23.724Z,2.97
2023-05-11T23:49:51.680Z,2.70
2023-05-11T23:52:19.153Z,3.15
2023-05-11T23:54:46.639Z,2.80
2023-05-11T23:57:14.086Z,2.65
2023-05-11T23:59:42.135Z,2.55
